createdAt,value
2018-01-11T00:00:14.191Z,68.00
2018-01-11T00:02:44.652Z,68.10
2018-01-11T00:05:12.297Z,68.40
2018-01-11T00:07:41.759Z,68.80
2018-01-11T00:10:10.500Z,67.60
2018-01-11T00:12:38.183Z,67.20
2018-01-11T00:15:07.790Z,66.90
2018-01-11T00:17:36.789Z,66.80
2018-01-11T00:20:04.402Z,67.40
2018-01-11T00:22:33.083Z,67.60
2018-01-11T00:25:01.436Z,68.70
2018-01-11T00:27:29.780Z,67.80
2018-01-11T00:29:57.434Z,67.00
2018-01-11T00:32:25.991Z,66.00
2018-01-11T00:34:55.177Z,65.80
2018-01-11T00:37:23.653Z,66.50
2018-01-11T00:39:52.814Z,66.60
2018-01-11T00:42:21.366Z,67.30
2018-01-11T00:44:49.072Z,67.70
2018-01-11T00:47:16.871Z,68.00
2018-01-11T00:49:45.845Z,67.80
2018-01-11T00:52:14.157Z,67.10
2018-01-11T00:54:43.528Z,65.20
2018-01-11T00:57:11.595Z,65.30
2018-01-11T00:59:39.972Z,66.80
2018-01-11T01:02:09.287Z,66.50
2018-01-11T01:04:37.728Z,66.70
2018-01-11T01:07:05.566Z,66.80
2018-01-11T01:09:33.208Z,67.00
2018-01-11T01:12:00.774Z,67.60
2018-01-11T01:14:28.305Z,67.20
2018-01-11T01:16:55.934Z,67.30
2018-01-11T01:19:23.568Z,67.60
2018-01-11T01:21:54.846Z,69.50
2018-01-11T01:24:22.403Z,70.40
2018-01-11T01:26:52.468Z,70.10
2018-01-11T01:29:26.799Z,70.30
2018-01-11T01:31:54.556Z,69.90
2018-01-11T01:34:22.902Z,69.70
2018-01-11T01:36:51.657Z,68.60
2018-01-11T01:39:20.651Z,70.30
2018-01-11T01:41:48.261Z,68.60
2018-01-11T01:44:16.003Z,68.70
2018-01-11T01:46:46.730Z,67.70
2018-01-11T01:49:15.206Z,66.90
2018-01-11T01:51:43.567Z,67.80
2018-01-11T01:54:15.558Z,67.40
2018-01-11T01:56:43.857Z,67.50
2018-01-11T01:59:11.904Z,67.80
2018-01-11T02:01:40.825Z,68.00
2018-01-11T02:04:09.143Z,67.90
2018-01-11T02:06:38.293Z,67.40
2018-01-11T02:09:07.435Z,67.10
2018-01-11T02:11:36.055Z,66.90
2018-01-11T02:14:04.640Z,67.70
2018-01-11T02:16:32.587Z,66.80
2018-01-11T02:19:01.481Z,66.50
2018-01-11T02:21:29.084Z,66.90
2018-01-11T02:23:56.656Z,67.80
2018-01-11T02:26:24.276Z,68.50
2018-01-11T02:28:52.851Z,69.10
2018-01-11T02:31:21.211Z,68.80
2018-01-11T02:33:49.569Z,68.60
2018-01-11T02:36:18.389Z,68.10
2018-01-11T02:38:46.753Z,67.90
2018-01-11T02:41:15.706Z,68.00
2018-01-11T02:43:43.268Z,67.10
2018-01-11T02:46:10.852Z,66.80
2018-01-11T02:48:39.288Z,69.00
2018-01-11T02:51:08.068Z,67.70
2018-01-11T02:53:36.574Z,68.10
2018-01-11T02:56:04.501Z,68.10
2018-01-11T02:58:32.092Z,68.80
2018-01-11T03:01:00.788Z,71.00
2018-01-11T03:03:28.620Z,69.90
2018-01-11T03:05:56.255Z,69.60
2018-01-11T03:08:24.677Z,69.50
2018-01-11T03:10:53.269Z,69.00
2018-01-11T03:13:21.823Z,68.90
2018-01-11T03:15:50.133Z,68.40
2018-01-11T03:18:17.662Z,68.60
2018-01-11T03:20:45.336Z,68.90
2018-01-11T03:23:13.870Z,70.20
2018-01-11T03:25:41.537Z,69.50
2018-01-11T03:28:09.160Z,68.90
2018-01-11T03:30:36.721Z,67.90
2018-01-11T03:33:04.541Z,67.90
2018-01-11T03:35:33.064Z,68.40
2018-01-11T03:38:01.380Z,69.00
2018-01-11T03:40:29.086Z,69.30
2018-01-11T03:42:58.127Z,69.80
2018-01-11T03:45:25.874Z,70.10
2018-01-11T03:47:54.212Z,69.70
2018-01-11T03:50:21.889Z,69.70
2018-01-11T03:52:50.004Z,70.30
2018-01-11T03:55:18.322Z,71.60
2018-01-11T03:57:45.955Z,71.10
2018-01-11T04:00:13.630Z,71.30
2018-01-11T04:02:42.031Z,72.20
2018-01-11T04:05:09.632Z,71.80
2018-01-11T04:07:37.346Z,71.70
2018-01-11T04:10:05.275Z,71.40
2018-01-11T04:12:34.535Z,71.40
2018-01-11T04:15:03.710Z,72.20
2018-01-11T04:17:32.434Z,71.20
2018-01-11T04:20:05.130Z,72.10
2018-01-11T04:22:32.946Z,71.20
2018-01-11T04:25:00.998Z,71.90
2018-01-11T04:27:29.210Z,71.80
2018-01-11T04:29:57.623Z,72.60
2018-01-11T04:32:25.509Z,71.70
2018-01-11T04:34:53.097Z,72.40
2018-01-11T04:37:20.641Z,71.80
2018-01-11T04:39:48.370Z,71.60
2018-01-11T04:42:16.264Z,72.20
2018-01-11T04:44:44.109Z,71.40
2018-01-11T04:47:11.763Z,70.90
2018-01-11T04:49:39.418Z,70.60
2018-01-11T04:52:06.941Z,70.70
2018-01-11T04:54:35.266Z,71.20
2018-01-11T04:57:06.816Z,70.90
2018-01-11T04:59:35.181Z,71.30
2018-01-11T05:02:02.949Z,71.30
2018-01-11T05:04:30.694Z,71.00
2018-01-11T05:06:59.462Z,70.70
2018-01-11T05:09:28.246Z,71.30
2018-01-11T05:11:57.217Z,70.70
2018-01-11T05:14:25.506Z,71.00
2018-01-11T05:16:54.120Z,70.70
2018-01-11T05:19:22.657Z,70.60
2018-01-11T05:21:51.139Z,70.40
2018-01-11T05:24:21.030Z,71.20
2018-01-11T05:26:49.192Z,70.60
2018-01-11T05:29:20.250Z,72.50
2018-01-11T05:31:49.053Z,73.60
2018-01-11T05:34:17.717Z,72.70
2018-01-11T05:36:46.249Z,72.80
2018-01-11T05:39:14.085Z,72.70
2018-01-11T05:41:42.583Z,73.40
2018-01-11T05:44:12.642Z,73.10
2018-01-11T05:46:41.386Z,72.00
2018-01-11T05:49:10.668Z,71.80
2018-01-11T05:51:39.613Z,71.90
2018-01-11T05:54:07.327Z,72.10
2018-01-11T05:56:35.746Z,72.60
2018-01-11T05:59:04.372Z,71.90
2018-01-11T06:01:32.289Z,72.10
2018-01-11T06:04:03.455Z,72.40
2018-01-11T06:06:36.240Z,72.30
2018-01-11T06:09:09.368Z,72.30
2018-01-11T06:11:42.182Z,72.50
2018-01-11T06:14:11.226Z,72.30
2018-01-11T06:16:42.847Z,72.10
2018-01-11T06:19:13.316Z,72.10
2018-01-11T06:21:44.493Z,72.30
2018-01-11T06:24:13.078Z,71.50
2018-01-11T06:26:45.745Z,71.60
2018-01-11T06:29:15.215Z,71.90
2018-01-11T06:31:44.166Z,72.40
2018-01-11T06:34:15.330Z,73.00
2018-01-11T06:36:46.121Z,73.20
2018-01-11T06:39:16.915Z,72.60
2018-01-11T06:41:45.763Z,72.40
2018-01-11T06:44:18.355Z,72.10
2018-01-11T06:46:46.707Z,72.40
2018-01-11T06:49:15.930Z,72.30
2018-01-11T06:51:45.807Z,72.20
2018-01-11T06:54:15.211Z,72.20
2018-01-11T06:56:43.259Z,71.90
2018-01-11T06:59:12.527Z,73.00
2018-01-11T07:01:40.365Z,72.50
2018-01-11T07:04:08.000Z,72.40
2018-01-11T07:06:39.630Z,72.20
2018-01-11T07:09:09.100Z,72.00
2018-01-11T07:11:53.814Z,71.90
2018-01-11T07:14:26.332Z,72.30
2018-01-11T07:16:55.239Z,72.00
2018-01-11T07:19:27.267Z,72.80
2018-01-11T07:21:57.739Z,72.30
2018-01-11T07:24:27.784Z,73.40
2018-01-11T07:26:55.784Z,72.50
2018-01-11T07:29:26.802Z,72.20
2018-01-11T07:35:02.633Z,72.40
2018-01-11T07:37:34.029Z,74.00
2018-01-11T07:40:05.260Z,74.30
2018-01-11T07:42:35.765Z,73.90
2018-01-11T07:45:14.218Z,74.70
2018-01-11T07:47:42.162Z,73.70
2018-01-11T07:50:30.133Z,74.40
2018-01-11T07:53:02.076Z,73.50
2018-01-11T07:55:33.885Z,73.60
2018-01-11T07:58:18.078Z,73.50
2018-01-11T08:00:54.368Z,73.20
2018-01-11T08:03:27.607Z,73.40
2018-01-11T08:06:02.641Z,73.00
2018-01-11T08:08:37.012Z,72.70
2018-01-11T08:11:06.350Z,72.60
2018-01-11T08:16:28.627Z,73.20
2018-01-11T08:19:02.017Z,73.80
2018-01-11T08:21:29.981Z,73.90
2018-01-11T08:26:38.915Z,73.40
2018-01-11T08:29:07.700Z,73.50
2018-01-11T08:31:41.078Z,72.80
2018-01-11T08:34:15.849Z,72.10
2018-01-11T08:36:44.354Z,71.90
2018-01-11T08:39:12.801Z,72.00
2018-01-11T08:41:42.831Z,73.20
2018-01-11T08:44:10.721Z,72.30
2018-01-11T08:46:38.300Z,72.10
2018-01-11T08:49:06.043Z,71.10
2018-01-11T08:51:34.541Z,71.30
2018-01-11T08:54:02.139Z,70.70
2018-01-11T08:56:34.344Z,71.90
2018-01-11T08:59:06.273Z,75.50
2018-01-11T09:01:33.880Z,70.10
2018-01-11T09:04:02.799Z,64.20
2018-01-11T09:06:33.805Z,62.20
2018-01-11T09:09:03.401Z,61.20
2018-01-11T09:11:30.950Z,62.20
2018-01-11T09:13:59.430Z,63.30
2018-01-11T09:16:30.390Z,63.90
2018-01-11T09:18:59.628Z,64.50
2018-01-11T09:21:28.748Z,66.10
2018-01-11T09:23:59.404Z,67.00
2018-01-11T09:26:30.847Z,67.30
2018-01-11T09:29:00.031Z,65.70
2018-01-11T09:31:29.716Z,65.30
2018-01-11T09:33:58.165Z,66.10
2018-01-11T09:36:26.886Z,65.20
2018-01-11T09:38:54.775Z,64.40
2018-01-11T09:41:22.425Z,64.60
2018-01-11T09:43:57.074Z,64.90
2018-01-11T09:46:24.668Z,64.90
2018-01-11T09:48:54.128Z,65.80
2018-01-11T09:51:21.929Z,65.00
2018-01-11T09:53:50.263Z,66.90
2018-01-11T09:56:17.899Z,65.20
2018-01-11T09:58:45.545Z,64.80
2018-01-11T10:01:15.793Z,66.00
2018-01-11T10:03:45.158Z,64.80
2018-01-11T10:06:13.699Z,65.60
2018-01-11T10:08:42.778Z,64.50
2018-01-11T10:11:12.110Z,63.10
2018-01-11T10:13:39.830Z,63.80
2018-01-11T10:16:07.616Z,63.40
2018-01-11T10:18:35.175Z,64.10
2018-01-11T10:21:02.977Z,63.80
2018-01-11T10:23:33.268Z,62.30
2018-01-11T10:26:00.905Z,62.10
2018-01-11T10:28:28.875Z,62.70
2018-01-11T10:30:57.112Z,62.90
2018-01-11T10:33:25.464Z,64.40
2018-01-11T10:35:53.314Z,63.70
2018-01-11T10:38:21.801Z,63.80
2018-01-11T10:40:50.130Z,63.60
2018-01-11T10:43:17.992Z,98.80
2018-01-11T10:45:45.630Z,64.60
2018-01-11T10:48:14.673Z,65.30
2018-01-11T10:50:43.084Z,64.30
2018-01-11T10:53:10.738Z,64.00
2018-01-11T10:55:39.135Z,64.10
2018-01-11T10:58:07.482Z,63.00
2018-01-11T11:00:40.831Z,62.00
2018-01-11T11:03:08.809Z,61.30
2018-01-11T11:05:36.645Z,61.30
2018-01-11T11:08:04.463Z,61.30
2018-01-11T11:10:32.074Z,60.40
2018-01-11T11:13:00.729Z,60.60
2018-01-11T11:15:29.424Z,60.60
2018-01-11T11:17:57.482Z,60.00
2018-01-11T11:20:26.438Z,59.10
2018-01-11T11:22:55.162Z,59.20
2018-01-11T11:25:23.459Z,59.90
2018-01-11T11:27:52.141Z,62.10
2018-01-11T11:30:20.635Z,62.00
2018-01-11T11:32:49.592Z,62.70
2018-01-11T11:35:17.684Z,61.60
2018-01-11T11:37:46.344Z,62.00
2018-01-11T11:40:14.983Z,61.50
2018-01-11T11:42:42.808Z,62.60
2018-01-11T11:45:13.051Z,62.20
2018-01-11T11:47:42.534Z,62.40
2018-01-11T11:50:12.378Z,60.80
2018-01-11T11:52:40.629Z,60.70
2018-01-11T11:55:08.944Z,61.20
2018-01-11T11:57:37.491Z,59.70
2018-01-11T12:00:06.001Z,60.00
2018-01-11T12:02:33.630Z,59.60
2018-01-11T12:05:07.137Z,59.60
2018-01-11T12:07:36.531Z,60.10
2018-01-11T12:10:05.129Z,62.60
2018-01-11T12:12:34.768Z,63.00
2018-01-11T12:15:04.026Z,60.90
2018-01-11T12:17:32.502Z,60.70
2018-01-11T12:20:02.062Z,60.60
2018-01-11T12:22:30.719Z,60.00
2018-01-11T12:25:00.054Z,59.50
2018-01-11T12:27:28.094Z,59.90
2018-01-11T12:29:57.606Z,59.50
2018-01-11T12:32:25.167Z,60.50
2018-01-11T12:34:52.820Z,59.80
2018-01-11T12:37:24.905Z,60.10
2018-01-11T12:39:52.655Z,59.20
2018-01-11T12:42:21.402Z,59.80
2018-01-11T12:44:49.378Z,59.50
2018-01-11T12:47:18.628Z,60.60
2018-01-11T12:49:47.149Z,61.10
2018-01-11T12:52:15.415Z,61.10
2018-01-11T12:54:45.593Z,61.20
2018-01-11T12:57:13.510Z,60.40
2018-01-11T12:59:42.504Z,60.50
2018-01-11T13:02:13.221Z,61.40
2018-01-11T13:04:42.454Z,61.10
2018-01-11T13:07:11.718Z,60.80
2018-01-11T13:09:41.529Z,62.40
2018-01-11T13:12:10.935Z,63.30
2018-01-11T13:14:40.690Z,64.10
2018-01-11T13:17:08.502Z,62.40
2018-01-11T13:19:38.248Z,62.80
2018-01-11T13:22:08.552Z,61.20
2018-01-11T13:24:38.854Z,61.50
2018-01-11T13:27:10.955Z,60.50
2018-01-11T13:29:39.741Z,60.40
2018-01-11T13:32:09.551Z,61.10
2018-01-11T13:34:38.526Z,60.30
2018-01-11T13:37:10.068Z,60.50
2018-01-11T13:39:40.740Z,60.00
2018-01-11T13:42:09.394Z,60.60
2018-01-11T13:44:39.303Z,60.80
2018-01-11T13:47:15.314Z,61.20
2018-01-11T13:49:55.393Z,60.30
2018-01-11T13:52:28.566Z,60.50
2018-01-11T13:54:59.372Z,60.20
2018-01-11T13:57:27.135Z,59.90
2018-01-11T13:59:55.220Z,59.90
2018-01-11T14:02:25.795Z,60.90
2018-01-11T14:04:57.787Z,61.80
2018-01-11T14:07:25.908Z,61.40
2018-01-11T14:09:57.549Z,60.80
2018-01-11T14:12:32.201Z,61.20
2018-01-11T14:15:02.655Z,61.60
2018-01-11T14:17:40.533Z,62.70
2018-01-11T14:20:10.440Z,63.50
2018-01-11T14:22:45.037Z,63.30
2018-01-11T14:25:17.685Z,63.20
2018-01-11T14:27:48.660Z,63.20
2018-01-11T14:30:20.031Z,63.10
2018-01-11T14:32:58.253Z,63.00
2018-01-11T14:35:36.037Z,62.90
2018-01-11T14:38:11.136Z,63.20
2018-01-11T14:40:47.457Z,63.30
2018-01-11T14:43:16.086Z,63.00
2018-01-11T14:45:45.278Z,62.40
2018-01-11T14:48:14.201Z,62.30
2018-01-11T14:50:42.958Z,62.80
2018-01-11T14:53:11.553Z,62.50
2018-01-11T14:55:41.712Z,63.50
2018-01-11T14:58:09.379Z,62.80
2018-01-11T15:00:39.236Z,64.20
2018-01-11T15:03:07.086Z,63.50
2018-01-11T15:05:35.524Z,68.80
2018-01-11T15:08:03.397Z,63.10
2018-01-11T15:10:33.077Z,63.90
2018-01-11T15:13:01.798Z,64.90
2018-01-11T15:15:30.387Z,64.50
2018-01-11T15:17:58.092Z,64.30
2018-01-11T15:20:28.215Z,64.40
2018-01-11T15:22:56.009Z,64.40
2018-01-11T15:25:24.876Z,64.60
2018-01-11T15:27:54.381Z,65.50
2018-01-11T15:30:23.131Z,65.70
2018-01-11T15:32:51.385Z,65.30
2018-01-11T15:35:19.199Z,65.50
2018-01-11T15:37:47.417Z,65.60
2018-01-11T15:40:16.302Z,65.30
2018-01-11T15:42:45.686Z,65.50
2018-01-11T15:45:14.169Z,66.30
2018-01-11T15:47:42.233Z,65.70
2018-01-11T15:50:17.139Z,66.00
2018-01-11T15:52:49.543Z,66.30
2018-01-11T15:55:17.285Z,66.40
2018-01-11T15:57:46.039Z,67.40
2018-01-11T16:00:16.485Z,66.60
2018-01-11T16:02:46.991Z,67.70
2018-01-11T16:05:14.710Z,67.40
2018-01-11T16:07:43.203Z,67.40
2018-01-11T16:10:11.000Z,73.40
2018-01-11T16:12:40.120Z,68.10
2018-01-11T16:15:09.106Z,67.40
2018-01-11T16:17:37.839Z,67.60
2018-01-11T16:20:09.358Z,67.50
2018-01-11T16:22:36.977Z,67.40
2018-01-11T16:25:04.885Z,68.50
2018-01-11T16:27:37.277Z,69.30
2018-01-11T16:30:04.994Z,68.40
2018-01-11T16:32:32.594Z,68.50
2018-01-11T16:35:00.185Z,68.60
2018-01-11T16:37:28.572Z,68.90
2018-01-11T16:39:57.209Z,69.50
2018-01-11T16:42:27.990Z,69.40
2018-01-11T16:44:56.374Z,69.20
2018-01-11T16:47:24.658Z,69.60
2018-01-11T16:49:54.329Z,70.30
2018-01-11T16:52:22.735Z,69.60
2018-01-11T16:54:53.424Z,69.40
2018-01-11T16:57:22.919Z,69.50
2018-01-11T16:59:52.238Z,69.50
2018-01-11T17:02:21.510Z,69.40
2018-01-11T17:04:49.710Z,69.90
2018-01-11T17:16:56.971Z,72.00
2018-01-11T17:22:29.307Z,71.00
2018-01-11T17:25:05.029Z,71.10
2018-01-11T17:27:54.409Z,71.30
2018-01-11T17:30:27.456Z,72.20
2018-01-11T17:32:57.706Z,71.20
2018-01-11T17:35:25.653Z,71.40
2018-01-11T17:37:57.836Z,71.10
2018-01-11T17:40:27.594Z,71.40
2018-01-11T17:42:58.147Z,71.10
2018-01-11T17:45:28.851Z,70.80
2018-01-11T17:48:06.327Z,70.10
2018-01-11T17:50:42.398Z,70.50
2018-01-11T17:55:55.965Z,70.40
2018-01-11T17:58:34.496Z,70.40
2018-01-11T18:01:11.280Z,70.20
2018-01-11T18:03:49.542Z,70.20
2018-01-11T18:06:24.488Z,71.00
2018-01-11T18:09:09.085Z,70.30
2018-01-11T18:11:37.312Z,70.20
2018-01-11T18:14:07.010Z,70.20
2018-01-11T18:16:37.420Z,70.80
2018-01-11T18:19:06.119Z,70.20
2018-01-11T18:24:16.720Z,70.50
2018-01-11T18:26:47.358Z,69.90
2018-01-11T18:32:21.361Z,70.30
2018-01-11T18:34:51.305Z,70.60
2018-01-11T18:37:19.296Z,69.60
2018-01-11T18:39:50.364Z,69.60
2018-01-11T18:42:18.149Z,69.30
2018-01-11T18:44:48.194Z,69.40
2018-01-11T18:47:17.240Z,69.40
2018-01-11T18:49:45.670Z,69.40
2018-01-11T18:52:17.424Z,69.30
2018-01-11T18:54:49.230Z,69.10
2018-01-11T18:57:18.614Z,69.10
2018-01-11T18:59:50.361Z,69.20
2018-01-11T19:02:22.697Z,69.30
2018-01-11T19:04:55.549Z,69.80
2018-01-11T19:07:26.297Z,70.30
2018-01-11T19:09:56.967Z,69.50
2018-01-11T19:12:26.660Z,69.50
2018-01-11T19:15:02.248Z,69.60
2018-01-11T19:17:30.911Z,74.20
2018-01-11T19:20:07.728Z,69.30
2018-01-11T19:23:07.549Z,69.00
2018-01-11T19:25:37.692Z,69.50
2018-01-11T19:28:09.738Z,69.50
2018-01-11T19:30:43.218Z,69.10
2018-01-11T19:33:13.057Z,69.80
2018-01-11T19:35:41.543Z,70.20
2018-01-11T19:38:09.300Z,89.00
2018-01-11T19:40:37.920Z,70.30
2018-01-11T19:43:08.191Z,70.90
2018-01-11T19:45:36.973Z,70.00
2018-01-11T19:48:08.080Z,70.80
2018-01-11T19:50:36.792Z,70.40
2018-01-11T19:53:06.165Z,69.60
2018-01-11T19:55:34.033Z,69.40
2018-01-11T19:58:03.692Z,69.60
2018-01-11T20:00:31.510Z,69.80
2018-01-11T20:03:00.264Z,70.70
2018-01-11T20:05:35.052Z,69.90
2018-01-11T20:08:10.403Z,70.50
2018-01-11T20:10:43.008Z,69.70
2018-01-11T20:13:15.775Z,70.20
2018-01-11T20:18:41.316Z,69.90
2018-01-11T20:21:09.165Z,69.80
2018-01-11T20:23:46.264Z,69.80
2018-01-11T20:26:15.916Z,70.00
2018-01-11T20:28:52.984Z,70.20
2018-01-11T20:31:21.128Z,70.40
2018-01-11T20:33:52.875Z,70.50
2018-01-11T20:39:07.967Z,70.50
2018-01-11T20:41:38.220Z,70.70
2018-01-11T20:44:27.135Z,73.40
2018-01-11T20:47:06.800Z,70.90
2018-01-11T20:49:47.428Z,71.70
2018-01-11T20:52:19.645Z,71.20
2018-01-11T21:00:17.623Z,72.00
2018-01-11T21:02:59.303Z,72.20
2018-01-11T21:05:29.005Z,72.30
2018-01-11T21:07:56.850Z,72.40
2018-01-11T21:10:25.880Z,73.00
2018-01-11T21:12:53.944Z,72.30
2018-01-11T21:15:25.736Z,72.30
2018-01-11T21:17:56.210Z,72.00
2018-01-11T21:23:07.707Z,72.00
2018-01-11T21:25:44.607Z,73.20
2018-01-11T21:31:11.086Z,72.90
2018-01-11T21:33:43.629Z,72.80
2018-01-11T21:36:34.114Z,73.00
2018-01-11T21:39:15.397Z,72.90
2018-01-11T21:42:02.015Z,73.00
2018-01-11T21:44:38.670Z,73.00
2018-01-11T23:13:45.167Z,79.90
2018-01-11T23:16:26.360Z,79.20
2018-01-11T23:19:08.472Z,78.70
2018-01-11T23:21:46.543Z,78.00
2018-01-11T23:39:44.288Z,77.50
2018-01-11T23:52:23.108Z,76.70
